Time,TemperatureF,DewpointF,PressureIn,WindDirection,WindDirectionDegrees,WindSpeedMPH,WindSpeedGustMPH,Humidity,HourlyPrecipIn,Conditions,Clouds,dailyrainin,SoftwareType,DateUTC
2013-01-21 00:00:00,23.2,12.7,30.22,WNW,292,6.9,6.9,64,0.00,,,0.00,WUHU21623XXSP,2013-01-21 05:00:00,
2013-01-21 00:01:00,23.2,12.7,30.22,WNW,292,6.9,6.9,64,0.00,,,0.00,WUHU21623XXSP,2013-01-21 05:01:00,
2013-01-21 00:03:00,23.2,12.7,30.22,WNW,292,6.3,6.9,64,0.00,,,0.00,WUHU21623XXSP,2013-01-21 05:03:00,
2013-01-21 00:08:00,23.2,13.1,30.22,West,270,5.8,6.3,65,0.00,,,0.00,WUHU21623XXSP,2013-01-21 05:08:00,
2013-01-21 00:13:00,23.2,13.1,30.22,WNW,292,5.6,7.8,65,0.00,,,0.00,WUHU21623XXSP,2013-01-21 05:13:00,
2013-01-21 00:18:00,23.2,13.1,30.22,WNW,292,6.7,10.7,64,0.00,,,0.00,WUHU21623XXSP,2013-01-21 05:18:00,
2013-01-21 00:23:00,23.0,12.6,30.21,West,270,6.0,10.7,64,0.00,,,0.00,WUHU21623XXSP,2013-01-21 05:23:00,
2013-01-21 00:28:00,22.8,12.4,30.21,West,270,2.2,6.7,64,0.00,,,0.00,WUHU21623XXSP,2013-01-21 05:28:00,
2013-01-21 00:33:00,22.8,12.4,30.20,West,270,2.7,3.1,64,0.00,,,0.00,WUHU21623XXSP,2013-01-21 05:33:00,
2013-01-21 00:38:00,22.8,12.4,30.20,WNW,292,6.3,6.3,64,0.00,,,0.00,WUHU21623XXSP,2013-01-21 05:38:00,
2013-01-21 00:43:00,22.8,12.4,30.20,WNW,292,7.8,7.8,64,0.00,,,0.00,WUHU21623XXSP,2013-01-21 05:43:00,
2013-01-21 00:48:00,22.6,12.2,30.19,WNW,292,4.9,7.8,64,0.00,,,0.00,WUHU21623XXSP,2013-01-21 05:48:00,
2013-01-21 00:53:00,22.6,12.2,30.19,WNW,292,7.2,7.2,64,0.00,,,0.00,WUHU21623XXSP,2013-01-21 05:53:00,
2013-01-21 00:58:00,22.6,12.2,30.19,WNW,292,6.3,7.2,64,0.00,,,0.00,WUHU21623XXSP,2013-01-21 05:58:00,
2013-01-21 01:03:00,22.5,12.0,30.19,NW,315,6.9,7.2,64,0.00,,,0.00,WUHU21623XXSP,2013-01-21 06:03:00,
2013-01-21 01:08:00,22.5,12.0,30.18,WNW,292,10.1,10.1,64,0.00,,,0.00,WUHU21623XXSP,2013-01-21 06:08:00,
2013-01-21 01:13:00,22.5,12.0,30.19,WNW,292,3.8,10.1,64,0.00,,,0.00,WUHU21623XXSP,2013-01-21 06:13:00,
2013-01-21 01:18:00,22.3,12.2,30.19,WNW,292,6.0,6.5,65,0.00,,,0.00,WUHU21623XXSP,2013-01-21 06:18:00,
2013-01-21 01:23:00,22.3,11.9,30.19,WNW,292,5.4,6.9,64,0.00,,,0.00,WUHU21623XXSP,2013-01-21 06:23:00,
2013-01-21 01:28:00,22.3,12.2,30.18,WNW,292,5.1,7.8,65,0.00,,,0.00,WUHU21623XXSP,2013-01-21 06:28:00,
2013-01-21 01:33:00,22.3,12.2,30.18,NW,315,6.5,7.8,65,0.00,,,0.00,WUHU21623XXSP,2013-01-21 06:33:00,
2013-01-21 01:38:00,22.3,12.2,30.18,WSW,247,5.1,6.5,65,0.00,,,0.00,WUHU21623XXSP,2013-01-21 06:38:00,
2013-01-21 01:43:00,22.1,12.1,30.18,WNW,292,3.8,5.1,65,0.00,,,0.00,WUHU21623XXSP,2013-01-21 06:43:00,
2013-01-21 01:48:00,22.1,12.1,30.18,NW,315,6.9,6.9,65,0.00,,,0.00,WUHU21623XXSP,2013-01-21 06:48:00,
2013-01-21 01:53:00,22.1,12.1,30.18,West,270,3.4,6.9,65,0.00,,,0.00,WUHU21623XXSP,2013-01-21 06:53:00,
2013-01-21 01:58:00,22.1,12.4,30.18,NW,315,5.6,6.9,66,0.00,,,0.00,WUHU21623XXSP,2013-01-21 06:58:00,
2013-01-21 02:03:00,21.9,12.2,30.18,NW,315,6.0,7.2,66,0.00,,,0.00,WUHU21623XXSP,2013-01-21 07:03:00,
2013-01-21 02:08:00,21.9,12.2,30.18,WNW,292,6.0,7.2,66,0.00,,,0.00,WUHU21623XXSP,2013-01-21 07:08:00,
2013-01-21 02:13:00,21.9,12.2,30.18,WNW,292,10.3,10.3,66,0.00,,,0.00,WUHU21623XXSP,2013-01-21 07:13:00,
2013-01-21 02:18:00,21.9,12.2,30.18,West,270,3.4,10.3,66,0.00,,,0.00,WUHU21623XXSP,2013-01-21 07:18:00,
2013-01-21 02:23:00,21.9,12.2,30.18,West,270,3.4,3.8,66,0.00,,,0.00,WUHU21623XXSP,2013-01-21 07:23:00,
2013-01-21 02:28:00,21.9,12.2,30.18,WNW,292,6.7,7.2,66,0.00,,,0.00,WUHU21623XXSP,2013-01-21 07:28:00,
2013-01-21 02:33:00,21.9,12.2,30.18,WNW,292,6.0,7.2,66,0.00,,,0.00,WUHU21623XXSP,2013-01-21 07:33:00,
2013-01-21 02:38:00,21.9,12.2,30.18,West,270,3.8,6.0,66,0.00,,,0.00,WUHU21623XXSP,2013-01-21 07:38:00,
2013-01-21 02:43:00,21.7,12.1,30.18,NW,315,6.7,8.1,66,0.00,,,0.00,WUHU21623XXSP,2013-01-21 07:43:00,
2013-01-21 02:48:00,21.7,12.4,30.17,WNW,292,4.7,8.1,67,0.00,,,0.00,WUHU21623XXSP,2013-01-21 07:48:00,
2013-01-21 02:53:00,21.7,12.4,30.18,WNW,292,6.9,6.9,67,0.00,,,0.00,WUHU21623XXSP,2013-01-21 07:53:00,
2013-01-21 02:58:00,21.6,12.2,30.18,WNW,292,5.8,8.1,67,0.00,,,0.00,WUHU21623XXSP,2013-01-21 07:58:00,
2013-01-21 03:03:00,21.4,12.1,30.18,West,270,2.7,8.1,67,0.00,,,0.00,WUHU21623XXSP,2013-01-21 08:03:00,
2013-01-21 03:08:00,21.4,12.1,30.17,NW,315,10.7,10.7,67,0.00,,,0.00,WUHU21623XXSP,2013-01-21 08:08:00,
2013-01-21 03:13:00,21.2,11.9,30.17,WNW,292,8.3,10.7,67,0.00,,,0.00,WUHU21623XXSP,2013-01-21 08:13:00,
2013-01-21 03:18:00,21.0,11.7,30.17,WNW,292,7.8,10.7,67,0.00,,,0.00,WUHU21623XXSP,2013-01-21 08:18:00,
2013-01-21 03:23:00,21.0,12.1,30.17,NW,315,7.6,8.5,68,0.00,,,0.00,WUHU21623XXSP,2013-01-21 08:23:00,
2013-01-21 03:28:00,21.0,12.1,30.18,WNW,292,5.8,8.5,68,0.00,,,0.00,WUHU21623XXSP,2013-01-21 08:28:00,
2013-01-21 03:33:00,21.0,12.1,30.17,West,270,4.3,6.7,68,0.00,,,0.00,WUHU21623XXSP,2013-01-21 08:33:00,
2013-01-21 03:38:00,20.8,11.9,30.17,WSW,247,7.4,7.4,68,0.00,,,0.00,WUHU21623XXSP,2013-01-21 08:38:00,
2013-01-21 03:43:00,20.8,11.9,30.17,West,270,5.4,7.4,68,0.00,,,0.00,WUHU21623XXSP,2013-01-21 08:43:00,
2013-01-21 03:48:00,20.8,11.9,30.17,WNW,292,7.2,7.2,68,0.00,,,0.00,WUHU21623XXSP,2013-01-21 08:48:00,
2013-01-21 03:53:00,20.8,12.2,30.17,NW,315,6.7,7.2,69,0.00,,,0.00,WUHU21623XXSP,2013-01-21 08:53:00,
2013-01-21 03:58:00,20.8,12.2,30.17,West,270,5.4,6.9,69,0.00,,,0.00,WUHU21623XXSP,2013-01-21 08:58:00,
2013-01-21 04:03:00,20.8,12.2,30.17,West,270,2.7,5.4,69,0.00,,,0.00,WUHU21623XXSP,2013-01-21 09:03:00,
2013-01-21 04:08:00,20.8,12.2,30.17,WNW,292,6.9,6.9,69,0.00,,,0.00,WUHU21623XXSP,2013-01-21 09:08:00,
2013-01-21 04:13:00,20.8,12.2,30.16,WNW,292,7.2,7.2,69,0.00,,,0.00,WUHU21623XXSP,2013-01-21 09:13:00,
2013-01-21 04:18:00,20.8,12.2,30.16,WSW,247,3.6,7.2,69,0.00,,,0.00,WUHU21623XXSP,2013-01-21 09:18:00,
2013-01-21 04:23:00,20.8,12.2,30.16,WNW,292,5.8,5.8,69,0.00,,,0.00,WUHU21623XXSP,2013-01-21 09:23:00,
2013-01-21 04:28:00,20.8,12.6,30.16,West,270,5.8,8.1,70,0.00,,,0.00,WUHU21623XXSP,2013-01-21 09:28:00,
2013-01-21 04:33:00,20.8,12.2,30.16,WNW,292,5.1,8.1,69,0.00,,,0.00,WUHU21623XXSP,2013-01-21 09:33:00,
2013-01-21 04:38:00,20.8,12.6,30.16,WNW,292,5.4,5.4,70,0.00,,,0.00,WUHU21623XXSP,2013-01-21 09:38:00,
2013-01-21 04:43:00,20.8,12.6,30.15,WNW,292,7.8,7.8,70,0.00,,,0.00,WUHU21623XXSP,2013-01-21 09:43:00,
2013-01-21 04:48:00,20.7,12.0,30.15,WNW,292,6.3,7.8,69,0.00,,,0.00,WUHU21623XXSP,2013-01-21 09:48:00,
2013-01-21 04:53:00,20.5,12.2,30.15,WNW,292,4.5,10.1,70,0.00,,,0.00,WUHU21623XXSP,2013-01-21 09:53:00,
2013-01-21 04:58:00,20.5,11.9,30.14,West,270,6.3,10.1,69,0.00,,,0.00,WUHU21623XXSP,2013-01-21 09:58:00,
2013-01-21 05:03:00,20.5,11.9,30.15,NNW,337,12.3,12.3,69,0.00,,,0.00,WUHU21623XXSP,2013-01-21 10:03:00,
2013-01-21 05:08:00,20.5,11.9,30.15,WNW,292,7.6,12.3,69,0.00,,,0.00,WUHU21623XXSP,2013-01-21 10:08:00,
2013-01-21 05:13:00,20.5,11.9,30.15,WNW,292,5.1,10.1,69,0.00,,,0.00,WUHU21623XXSP,2013-01-21 10:13:00,
2013-01-21 05:18:00,20.3,11.7,30.15,WNW,292,5.8,10.1,69,0.00,,,0.00,WUHU21623XXSP,2013-01-21 10:18:00,
2013-01-21 05:23:00,20.3,12.0,30.15,NW,315,8.3,8.3,70,0.00,,,0.00,WUHU21623XXSP,2013-01-21 10:23:00,
2013-01-21 05:28:00,20.3,12.0,30.15,WNW,292,7.2,9.4,70,0.00,,,0.00,WUHU21623XXSP,2013-01-21 10:28:00,
2013-01-21 05:33:00,20.3,12.0,30.15,WNW,292,12.8,14.8,70,0.00,,,0.00,WUHU21623XXSP,2013-01-21 10:33:00,
2013-01-21 05:38:00,20.1,12.0,30.15,West,270,6.3,14.8,70,0.00,,,0.00,WUHU21623XXSP,2013-01-21 10:38:00,
2013-01-21 05:43:00,20.1,11.8,30.14,WNW,292,6.9,12.8,70,0.00,,,0.00,WUHU21623XXSP,2013-01-21 10:43:00,
2013-01-21 05:48:00,20.1,11.8,30.14,West,270,5.4,6.9,70,0.00,,,0.00,WUHU21623XXSP,2013-01-21 10:48:00,
2013-01-21 05:53:00,20.1,11.8,30.14,West,270,4.5,8.5,70,0.00,,,0.00,WUHU21623XXSP,2013-01-21 10:53:00,
2013-01-21 05:58:00,20.1,11.8,30.14,West,270,3.6,8.5,70,0.00,,,0.00,WUHU21623XXSP,2013-01-21 10:58:00,
2013-01-21 06:03:00,19.9,11.8,30.14,WNW,292,7.4,10.5,70,0.00,,,0.00,WUHU21623XXSP,2013-01-21 11:03:00,
2013-01-21 06:08:00,19.9,11.7,30.14,West,270,7.4,11.2,70,0.00,,,0.00,WUHU21623XXSP,2013-01-21 11:08:00,
2013-01-21 06:13:00,19.9,11.7,30.15,NW,315,10.7,11.2,70,0.00,,,0.00,WUHU21623XXSP,2013-01-21 11:13:00,
2013-01-21 06:18:00,19.9,11.7,30.15,West,270,6.0,10.7,70,0.00,,,0.00,WUHU21623XXSP,2013-01-21 11:18:00,
2013-01-21 06:23:00,19.8,11.5,30.15,WNW,292,5.4,10.7,70,0.00,,,0.00,WUHU21623XXSP,2013-01-21 11:23:00,
2013-01-21 06:28:00,19.6,11.3,30.15,West,270,2.2,8.7,70,0.00,,,0.00,WUHU21623XXSP,2013-01-21 11:28:00,
2013-01-21 06:33:00,19.6,11.3,30.15,NW,315,9.6,9.6,70,0.00,,,0.00,WUHU21623XXSP,2013-01-21 11:33:00,
2013-01-21 06:38:00,19.6,11.3,30.15,WNW,292,9.8,9.8,70,0.00,,,0.00,WUHU21623XXSP,2013-01-21 11:38:00,
2013-01-21 06:43:00,19.6,11.3,30.16,WSW,247,6.9,9.8,70,0.00,,,0.00,WUHU21623XXSP,2013-01-21 11:43:00,
2013-01-21 06:48:00,19.4,11.1,30.15,West,270,5.8,6.9,70,0.00,,,0.00,WUHU21623XXSP,2013-01-21 11:48:00,
2013-01-21 06:53:00,19.4,11.1,30.16,West,270,5.8,5.8,70,0.00,,,0.00,WUHU21623XXSP,2013-01-21 11:53:00,
2013-01-21 06:58:00,19.2,11.0,30.16,WNW,292,11.0,11.0,70,0.00,,,0.00,WUHU21623XXSP,2013-01-21 11:58:00,
2013-01-21 07:03:00,19.2,11.0,30.16,NW,315,13.6,13.6,70,0.00,,,0.00,WUHU21623XXSP,2013-01-21 12:03:00,
2013-01-21 07:08:00,19.2,11.0,30.16,WNW,292,9.4,13.6,70,0.00,,,0.00,WUHU21623XXSP,2013-01-21 12:08:00,
2013-01-21 07:13:00,19.2,11.0,30.16,WNW,292,8.7,9.4,70,0.00,,,0.00,WUHU21623XXSP,2013-01-21 12:13:00,
2013-01-21 07:18:00,19.2,11.0,30.16,WNW,292,11.9,11.9,70,0.00,,,0.00,WUHU21623XXSP,2013-01-21 12:18:00,
2013-01-21 07:23:00,19.2,11.0,30.16,WNW,292,5.6,11.9,70,0.00,,,0.00,WUHU21623XXSP,2013-01-21 12:23:00,
2013-01-21 07:28:00,19.2,11.0,30.16,West,270,2.2,8.5,70,0.00,,,0.00,WUHU21623XXSP,2013-01-21 12:28:00,
2013-01-21 07:33:00,19.2,11.0,30.16,West,270,3.6,7.6,70,0.00,,,0.00,WUHU21623XXSP,2013-01-21 12:33:00,
2013-01-21 07:38:00,19.2,11.2,30.16,West,270,7.6,7.6,71,0.00,,,0.00,WUHU21623XXSP,2013-01-21 12:38:00,
2013-01-21 07:43:00,19.2,11.0,30.16,West,270,2.9,13.6,70,0.00,,,0.00,WUHU21623XXSP,2013-01-21 12:43:00,
2013-01-21 07:48:00,19.2,11.0,30.16,West,270,4.5,13.6,70,0.00,,,0.00,WUHU21623XXSP,2013-01-21 12:48:00,
2013-01-21 07:53:00,19.2,11.0,30.16,West,270,4.0,6.9,70,0.00,,,0.00,WUHU21623XXSP,2013-01-21 12:53:00,
2013-01-21 07:58:00,19.2,11.0,30.15,WNW,292,7.4,7.4,71,0.00,,,0.00,WUHU21623XXSP,2013-01-21 12:58:00,
2013-01-21 08:03:00,19.0,10.8,30.15,WNW,292,7.4,7.4,71,0.00,,,0.00,WUHU21623XXSP,2013-01-21 13:03:00,
2013-01-21 08:08:00,19.0,11.1,30.15,West,270,6.5,7.4,71,0.00,,,0.00,WUHU21623XXSP,2013-01-21 13:08:00,
2013-01-21 08:13:00,18.9,10.9,30.14,West,270,4.9,6.5,71,0.00,,,0.00,WUHU21623XXSP,2013-01-21 13:13:00,
2013-01-21 08:18:00,18.9,10.9,30.14,WNW,292,5.1,6.5,71,0.00,,,0.00,WUHU21623XXSP,2013-01-21 13:18:00,
2013-01-21 08:23:00,18.9,11.2,30.14,WNW,292,11.6,11.6,72,0.00,,,0.00,WUHU21623XXSP,2013-01-21 13:23:00,
2013-01-21 08:28:00,18.7,11.1,30.14,NW,315,9.2,11.6,73,0.00,,,0.00,WUHU21623XXSP,2013-01-21 13:28:00,
2013-01-21 08:33:00,18.5,11.2,30.14,WNW,292,7.2,11.6,73,0.00,,,0.00,WUHU21623XXSP,2013-01-21 13:33:00,
2013-01-21 08:38:00,18.3,11.0,30.15,NW,315,6.7,7.2,73,0.00,,,0.00,WUHU21623XXSP,2013-01-21 13:38:00,
2013-01-21 08:43:00,18.3,11.3,30.15,WNW,292,6.7,9.6,74,0.00,,,0.00,WUHU21623XXSP,2013-01-21 13:43:00,
2013-01-21 08:48:00,18.3,11.3,30.14,WNW,292,6.7,9.6,74,0.00,,,0.00,WUHU21623XXSP,2013-01-21 13:48:00,
2013-01-21 08:53:00,18.1,10.8,30.15,WNW,292,10.5,12.8,73,0.00,,,0.00,WUHU21623XXSP,2013-01-21 13:53:00,
2013-01-21 08:58:00,18.0,11.0,30.15,NNW,337,5.8,12.8,74,0.00,,,0.00,WUHU21623XXSP,2013-01-21 13:58:00,
2013-01-21 09:03:00,17.8,11.0,30.15,WNW,292,9.8,9.8,74,0.00,,,0.00,WUHU21623XXSP,2013-01-21 14:03:00,
2013-01-21 09:08:00,17.8,10.8,30.15,NW,315,12.1,12.1,74,0.00,,,0.00,WUHU21623XXSP,2013-01-21 14:08:00,
2013-01-21 09:13:00,17.4,10.5,30.15,West,270,8.1,12.1,74,0.00,,,0.00,WUHU21623XXSP,2013-01-21 14:13:00,
2013-01-21 09:18:00,17.4,10.5,30.15,WNW,292,6.3,12.1,74,0.00,,,0.00,WUHU21623XXSP,2013-01-21 14:18:00,
2013-01-21 09:23:00,17.4,10.5,30.15,West,270,9.4,12.5,74,0.00,,,0.00,WUHU21623XXSP,2013-01-21 14:23:00,
2013-01-21 09:28:00,17.4,10.2,30.16,West,270,2.7,12.5,73,0.00,,,0.00,WUHU21623XXSP,2013-01-21 14:28:00,
2013-01-21 09:33:00,17.6,10.4,30.16,WNW,292,8.7,12.3,73,0.00,,,0.00,WUHU21623XXSP,2013-01-21 14:33:00,
2013-01-21 09:38:00,17.8,10.5,30.16,WNW,292,5.4,8.7,73,0.00,,,0.00,WUHU21623XXSP,2013-01-21 14:38:00,
2013-01-21 09:43:00,18.0,10.7,30.16,West,270,6.0,7.2,73,0.00,,,0.00,WUHU21623XXSP,2013-01-21 14:43:00,
2013-01-21 09:48:00,18.0,10.7,30.15,WSW,247,4.5,8.5,73,0.00,,,0.00,WUHU21623XXSP,2013-01-21 14:48:00,
2013-01-21 09:53:00,18.0,10.7,30.15,WNW,292,6.9,8.5,73,0.00,,,0.00,WUHU21623XXSP,2013-01-21 14:53:00,
2013-01-21 09:58:00,17.8,10.2,30.15,WNW,292,4.0,6.9,72,0.00,,,0.00,WUHU21623XXSP,2013-01-21 14:58:00,
2013-01-21 10:03:00,17.8,10.2,30.16,WSW,247,7.6,7.6,72,0.00,,,0.00,WUHU21623XXSP,2013-01-21 15:03:00,
2013-01-21 10:08:00,17.8,10.5,30.16,WNW,292,6.9,7.6,73,0.00,,,0.00,WUHU21623XXSP,2013-01-21 15:08:00,
2013-01-21 10:13:00,17.8,10.5,30.16,WNW,292,8.3,8.3,73,0.00,,,0.00,WUHU21623XXSP,2013-01-21 15:13:00,
2013-01-21 10:18:00,17.6,10.5,30.16,WNW,292,8.3,8.3,73,0.00,,,0.00,WUHU21623XXSP,2013-01-21 15:18:00,
2013-01-21 10:23:00,17.4,10.2,30.16,NW,315,14.5,14.5,73,0.00,,,0.00,WUHU21623XXSP,2013-01-21 15:23:00,
2013-01-21 10:28:00,17.4,9.6,30.16,NW,315,10.3,15.2,71,0.00,,,0.00,WUHU21623XXSP,2013-01-21 15:28:00,
2013-01-21 10:33:00,17.2,9.4,30.16,NW,315,10.5,15.2,71,0.00,,,0.00,WUHU21623XXSP,2013-01-21 15:33:00,
2013-01-21 10:38:00,17.4,9.6,30.16,WNW,292,12.5,12.8,71,0.00,,,0.00,WUHU21623XXSP,2013-01-21 15:38:00,
2013-01-21 10:43:00,17.8,10.2,30.16,NW,315,13.0,13.0,72,0.00,,,0.00,WUHU21623XXSP,2013-01-21 15:43:00,
2013-01-21 10:48:00,17.4,9.9,30.16,WNW,292,8.7,13.0,72,0.00,,,0.00,WUHU21623XXSP,2013-01-21 15:48:00,
2013-01-21 10:53:00,17.4,9.6,30.16,NW,315,11.0,13.0,71,0.00,,,0.00,WUHU21623XXSP,2013-01-21 15:53:00,
2013-01-21 10:58:00,17.4,9.6,30.16,WNW,292,7.8,12.3,71,0.00,,,0.00,WUHU21623XXSP,2013-01-21 15:58:00,
2013-01-21 11:03:00,17.6,9.6,30.17,WNW,292,7.8,12.3,72,0.00,,,0.00,WUHU21623XXSP,2013-01-21 16:03:00,
2013-01-21 11:08:00,17.8,10.2,30.17,WNW,292,10.1,10.1,72,0.00,,,0.00,WUHU21623XXSP,2013-01-21 16:08:00,
2013-01-21 11:13:00,17.4,9.6,30.16,WNW,292,8.7,10.1,71,0.00,,,0.00,WUHU21623XXSP,2013-01-21 16:13:00,
2013-01-21 11:18:00,17.8,10.2,30.16,NW,315,14.5,14.5,72,0.00,,,0.00,WUHU21623XXSP,2013-01-21 16:18:00,
2013-01-21 11:23:00,18.0,10.4,30.16,WNW,292,4.9,14.5,72,0.00,,,0.00,WUHU21623XXSP,2013-01-21 16:23:00,
2013-01-21 11:28:00,18.0,10.4,30.16,West,270,6.9,11.6,72,0.00,,,0.00,WUHU21623XXSP,2013-01-21 16:28:00,
2013-01-21 11:33:00,17.8,10.2,30.17,WNW,292,6.3,11.9,72,0.00,,,0.00,WUHU21623XXSP,2013-01-21 16:33:00,
2013-01-21 11:38:00,17.2,10.0,30.17,West,270,8.5,11.9,73,0.00,,,0.00,WUHU21623XXSP,2013-01-21 16:38:00,
2013-01-21 11:43:00,17.4,10.5,30.17,West,270,8.1,11.4,74,0.00,,,0.00,WUHU21623XXSP,2013-01-21 16:43:00,
2013-01-21 11:48:00,17.4,9.9,30.17,WNW,292,12.8,12.8,72,0.00,,,0.00,WUHU21623XXSP,2013-01-21 16:48:00,
2013-01-21 11:53:00,17.4,9.6,30.17,West,270,4.9,12.8,71,0.00,,,0.00,WUHU21623XXSP,2013-01-21 16:53:00,
2013-01-21 11:58:00,17.4,9.6,30.17,West,270,5.8,9.2,71,0.00,,,0.00,WUHU21623XXSP,2013-01-21 16:58:00,
2013-01-21 12:03:00,17.2,9.6,30.17,West,270,5.8,5.8,70,0.00,,,0.00,WUHU21623XXSP,2013-01-21 17:03:00,
2013-01-21 12:08:00,17.2,8.8,30.17,WNW,292,6.9,8.5,69,0.00,,,0.00,WUHU21623XXSP,2013-01-21 17:08:00,
2013-01-21 12:13:00,17.2,8.5,30.17,West,270,2.7,8.5,68,0.00,,,0.00,WUHU21623XXSP,2013-01-21 17:13:00,
2013-01-21 12:18:00,17.4,8.3,30.17,West,270,4.9,6.5,67,0.00,,,0.00,WUHU21623XXSP,2013-01-21 17:18:00,
2013-01-21 12:23:00,17.8,8.6,30.16,WNW,292,7.6,7.6,67,0.00,,,0.00,WUHU21623XXSP,2013-01-21 17:23:00,
2013-01-21 12:28:00,17.8,8.0,30.16,WNW,292,9.4,9.4,65,0.00,,,0.00,WUHU21623XXSP,2013-01-21 17:28:00,
2013-01-21 12:33:00,18.3,8.1,30.16,WNW,292,7.6,9.4,64,0.00,,,0.00,WUHU21623XXSP,2013-01-21 17:33:00,
2013-01-21 12:38:00,18.3,8.1,30.16,WSW,247,6.5,7.6,64,0.00,,,0.00,WUHU21623XXSP,2013-01-21 17:38:00,
2013-01-21 12:43:00,18.1,7.9,30.16,West,270,4.9,7.2,64,0.00,,,0.00,WUHU21623XXSP,2013-01-21 17:43:00,
2013-01-21 12:48:00,18.1,7.9,30.16,WNW,292,9.4,9.4,64,0.00,,,0.00,WUHU21623XXSP,2013-01-21 17:48:00,
2013-01-21 12:53:00,17.8,7.6,30.16,WNW,292,5.8,9.4,64,0.00,,,0.00,WUHU21623XXSP,2013-01-21 17:53:00,
2013-01-21 12:58:00,17.4,7.3,30.16,WSW,247,6.7,7.4,64,0.00,,,0.00,WUHU21623XXSP,2013-01-21 17:58:00,
2013-01-21 13:03:00,18.0,7.8,30.16,West,270,5.6,6.9,64,0.00,,,0.00,WUHU21623XXSP,2013-01-21 18:03:00,
2013-01-21 13:08:00,19.0,8.7,30.15,SW,225,7.2,7.2,64,0.00,,,0.00,WUHU21623XXSP,2013-01-21 18:08:00,
2013-01-21 13:13:00,19.6,9.2,30.16,WNW,292,11.2,18.6,64,0.00,,,0.00,WUHU21623XXSP,2013-01-21 18:13:00,
2013-01-21 13:18:00,18.5,8.3,30.15,West,270,5.6,18.6,64,0.00,,,0.00,WUHU21623XXSP,2013-01-21 18:18:00,
2013-01-21 13:23:00,17.4,7.3,30.15,West,270,6.9,15.2,64,0.00,,,0.00,WUHU21623XXSP,2013-01-21 18:23:00,
2013-01-21 13:28:00,17.2,7.1,30.15,WNW,292,7.4,15.2,64,0.00,,,0.00,WUHU21623XXSP,2013-01-21 18:28:00,
2013-01-21 13:33:00,17.1,7.3,30.16,NW,315,5.6,10.3,65,0.00,,,0.00,WUHU21623XXSP,2013-01-21 18:33:00,
2013-01-21 13:38:00,17.2,6.4,30.16,WNW,292,13.4,14.8,62,0.00,,,0.00,WUHU21623XXSP,2013-01-21 18:38:00,
2013-01-21 13:43:00,17.2,6.4,30.16,WNW,292,11.2,14.8,62,0.00,,,0.00,WUHU21623XXSP,2013-01-21 18:43:00,
2013-01-21 13:48:00,17.2,6.7,30.16,WNW,292,9.8,13.2,63,0.00,,,0.00,WUHU21623XXSP,2013-01-21 18:48:00,
2013-01-21 13:54:00,16.7,5.9,30.16,NW,315,16.3,16.3,62,0.00,,,0.00,WUHU21623XXSP,2013-01-21 18:54:00,
2013-01-21 13:59:00,16.3,5.5,30.16,NW,315,12.1,16.3,62,0.00,,,0.00,WUHU21623XXSP,2013-01-21 18:59:00,
2013-01-21 14:04:00,16.3,5.8,30.16,WNW,292,12.1,14.3,63,0.00,,,0.00,WUHU21623XXSP,2013-01-21 19:04:00,
2013-01-21 14:09:00,16.3,5.8,30.16,West,270,6.5,15.4,63,0.00,,,0.00,WUHU21623XXSP,2013-01-21 19:09:00,
2013-01-21 14:14:00,16.2,5.3,30.17,WSW,247,6.3,15.4,62,0.00,,,0.00,WUHU21623XXSP,2013-01-21 19:14:00,
2013-01-21 14:19:00,16.2,5.0,30.17,WNW,292,7.6,8.1,61,0.00,,,0.00,WUHU21623XXSP,2013-01-21 19:19:00,
2013-01-21 14:24:00,16.9,5.7,30.17,West,270,5.8,8.1,61,0.00,,,0.00,WUHU21623XXSP,2013-01-21 19:24:00,
2013-01-21 14:29:00,16.9,5.7,30.17,West,270,9.4,9.4,61,0.00,,,0.00,WUHU21623XXSP,2013-01-21 19:29:00,
2013-01-21 14:34:00,16.7,5.5,30.17,West,270,6.5,13.9,61,0.00,,,0.00,WUHU21623XXSP,2013-01-21 19:34:00,
2013-01-21 14:39:00,16.3,4.8,30.17,WNW,292,9.4,13.9,60,0.00,,,0.00,WUHU21623XXSP,2013-01-21 19:39:00,
2013-01-21 14:44:00,16.2,4.6,30.18,West,270,4.5,9.8,60,0.00,,,0.00,WUHU21623XXSP,2013-01-21 19:44:00,
2013-01-21 14:49:00,16.0,4.5,30.17,WNW,292,8.9,9.8,60,0.00,,,0.00,WUHU21623XXSP,2013-01-21 19:49:00,
2013-01-21 14:54:00,15.6,4.1,30.18,West,270,8.1,8.9,60,0.00,,,0.00,WUHU21623XXSP,2013-01-21 19:54:00,
2013-01-21 14:59:00,15.6,4.5,30.18,West,270,6.3,9.6,61,0.00,,,0.00,WUHU21623XXSP,2013-01-21 19:59:00,
2013-01-21 15:04:00,15.8,4.6,30.18,West,270,6.5,9.6,61,0.00,,,0.00,WUHU21623XXSP,2013-01-21 20:04:00,
2013-01-21 15:09:00,15.8,4.6,30.19,WSW,247,6.3,6.5,61,0.00,,,0.00,WUHU21623XXSP,2013-01-21 20:09:00,
2013-01-21 15:14:00,16.0,4.8,30.19,WNW,292,5.1,6.3,61,0.00,,,0.00,WUHU21623XXSP,2013-01-21 20:14:00,
2013-01-21 15:19:00,16.0,4.5,30.19,NW,315,7.4,19.0,60,0.00,,,0.00,WUHU21623XXSP,2013-01-21 20:19:00,
2013-01-21 15:24:00,15.6,4.1,30.19,WNW,292,8.7,19.0,60,0.00,,,0.00,WUHU21623XXSP,2013-01-21 20:24:00,
2013-01-21 15:29:00,15.4,4.3,30.19,WNW,292,5.4,11.0,61,0.00,,,0.00,WUHU21623XXSP,2013-01-21 20:29:00,
2013-01-21 15:34:00,15.4,4.0,30.19,WNW,292,17.9,17.9,60,0.00,,,0.00,WUHU21623XXSP,2013-01-21 20:34:00,
2013-01-21 15:39:00,15.1,3.2,30.19,WNW,292,10.1,17.9,59,0.00,,,0.00,WUHU21623XXSP,2013-01-21 20:39:00,
2013-01-21 15:44:00,15.4,4.0,30.19,WNW,292,10.1,15.7,60,0.00,,,0.00,WUHU21623XXSP,2013-01-21 20:44:00,
2013-01-21 15:49:00,16.0,4.5,30.19,NW,315,17.2,17.2,60,0.00,,,0.00,WUHU21623XXSP,2013-01-21 20:49:00,
2013-01-21 15:54:00,15.4,4.8,30.20,WNW,292,8.1,17.2,62,0.00,,,0.00,WUHU21623XXSP,2013-01-21 20:54:00,
2013-01-21 15:59:00,15.1,4.3,30.19,West,270,5.8,9.2,62,0.00,,,0.00,WUHU21623XXSP,2013-01-21 20:59:00,
2013-01-21 16:04:00,14.7,4.2,30.19,West,270,2.7,6.0,62,0.00,,,0.00,WUHU21623XXSP,2013-01-21 21:04:00,
2013-01-21 16:09:00,14.7,3.6,30.20,WNW,292,11.6,11.6,61,0.00,,,0.00,WUHU21623XXSP,2013-01-21 21:09:00,
2013-01-21 16:14:00,14.4,3.3,30.20,West,270,5.6,11.6,61,0.00,,,0.00,WUHU21623XXSP,2013-01-21 21:14:00,
2013-01-21 16:19:00,14.2,3.2,30.20,West,270,5.6,7.2,61,0.00,,,0.00,WUHU21623XXSP,2013-01-21 21:19:00,
2013-01-21 16:24:00,13.8,2.8,30.20,WNW,292,10.7,10.7,61,0.00,,,0.00,WUHU21623XXSP,2013-01-21 21:24:00,
2013-01-21 16:29:00,13.8,2.8,30.20,WNW,292,17.4,17.4,61,0.00,,,0.00,WUHU21623XXSP,2013-01-21 21:29:00,
2013-01-21 16:34:00,14.2,2.8,30.20,WNW,292,8.5,17.4,60,0.00,,,0.00,WUHU21623XXSP,2013-01-21 21:34:00,
2013-01-21 16:39:00,14.2,2.4,30.20,WNW,292,10.7,10.7,59,0.00,,,0.00,WUHU21623XXSP,2013-01-21 21:39:00,
2013-01-21 16:44:00,14.2,2.4,30.20,West,270,7.8,10.7,59,0.00,,,0.00,WUHU21623XXSP,2013-01-21 21:44:00,
2013-01-21 16:49:00,14.2,2.4,30.20,WNW,292,15.4,15.4,59,0.00,,,0.00,WUHU21623XXSP,2013-01-21 21:49:00,
2013-01-21 16:54:00,13.8,1.7,30.20,WSW,247,6.3,15.4,58,0.00,,,0.00,WUHU21623XXSP,2013-01-21 21:54:00,
2013-01-21 16:59:00,13.6,1.5,30.20,West,270,5.1,11.4,58,0.00,,,0.00,WUHU21623XXSP,2013-01-21 21:59:00,
2013-01-21 17:04:00,13.3,1.5,30.20,NW,315,13.9,13.9,59,0.00,,,0.00,WUHU21623XXSP,2013-01-21 22:04:00,
2013-01-21 17:09:00,13.5,2.1,30.20,WNW,292,7.6,13.9,60,0.00,,,0.00,WUHU21623XXSP,2013-01-21 22:09:00,
2013-01-21 17:14:00,13.6,2.3,30.21,WNW,292,6.0,7.6,60,0.00,,,0.00,WUHU21623XXSP,2013-01-21 22:14:00,
2013-01-21 17:19:00,13.5,2.3,30.20,West,270,8.9,8.9,60,0.00,,,0.00,WUHU21623XXSP,2013-01-21 22:19:00,
2013-01-21 17:24:00,13.3,1.9,30.21,WNW,292,9.2,9.2,60,0.00,,,0.00,WUHU21623XXSP,2013-01-21 22:24:00,
2013-01-21 17:29:00,13.3,1.5,30.21,WNW,292,11.2,11.2,59,0.00,,,0.00,WUHU21623XXSP,2013-01-21 22:29:00,
2013-01-21 17:34:00,13.3,1.5,30.21,West,270,5.8,11.2,59,0.00,,,0.00,WUHU21623XXSP,2013-01-21 22:34:00,
2013-01-21 17:39:00,12.9,1.2,30.21,West,270,6.5,11.4,59,0.00,,,0.00,WUHU21623XXSP,2013-01-21 22:39:00,
2013-01-21 17:44:00,12.9,1.2,30.21,WNW,292,5.1,11.4,59,0.00,,,0.00,WUHU21623XXSP,2013-01-21 22:44:00,
2013-01-21 17:49:00,12.9,1.2,30.21,NW,315,13.0,13.0,59,0.00,,,0.00,WUHU21623XXSP,2013-01-21 22:49:00,
2013-01-21 17:54:00,12.7,0.6,30.21,WNW,292,12.8,13.0,58,0.00,,,0.00,WUHU21623XXSP,2013-01-21 22:54:00,
2013-01-21 17:59:00,12.7,0.6,30.21,NW,315,8.7,12.8,58,0.00,,,0.00,WUHU21623XXSP,2013-01-21 22:59:00,
2013-01-21 18:04:00,12.7,0.6,30.21,WNW,292,6.5,12.8,58,0.00,,,0.00,WUHU21623XXSP,2013-01-21 23:04:00,
2013-01-21 18:09:00,12.6,0.1,30.21,WNW,292,16.6,16.6,57,0.00,,,0.00,WUHU21623XXSP,2013-01-21 23:09:00,
2013-01-21 18:14:00,12.6,0.1,30.22,WNW,292,7.8,16.6,57,0.00,,,0.00,WUHU21623XXSP,2013-01-21 23:14:00,
2013-01-21 18:19:00,12.4,-0.1,30.22,WNW,292,5.8,7.8,57,0.00,,,0.00,WUHU21623XXSP,2013-01-21 23:19:00,
2013-01-21 18:24:00,12.2,-0.3,30.22,WNW,292,9.2,9.2,57,0.00,,,0.00,WUHU21623XXSP,2013-01-21 23:24:00,
2013-01-21 18:29:00,12.0,0.1,30.22,WSW,247,6.9,9.2,58,0.00,,,0.00,WUHU21623XXSP,2013-01-21 23:29:00,
2013-01-21 18:34:00,12.0,-0.4,30.22,West,270,6.0,9.2,57,0.00,,,0.00,WUHU21623XXSP,2013-01-21 23:34:00,
2013-01-21 18:39:00,12.0,-0.1,30.22,West,270,6.7,14.8,58,0.00,,,0.00,WUHU21623XXSP,2013-01-21 23:39:00,
2013-01-21 18:44:00,12.0,-0.1,30.22,WNW,292,6.9,14.8,58,0.00,,,0.00,WUHU21623XXSP,2013-01-21 23:44:00,
2013-01-21 18:49:00,12.0,-0.1,30.22,WNW,292,10.1,10.1,58,0.00,,,0.00,WUHU21623XXSP,2013-01-21 23:49:00,
2013-01-21 18:54:00,12.0,-0.1,30.22,West,270,2.5,10.1,58,0.00,,,0.00,WUHU21623XXSP,2013-01-21 23:54:00,
2013-01-21 18:59:00,12.0,-0.1,30.23,WNW,292,11.4,11.4,58,0.00,,,0.00,WUHU21623XXSP,2013-01-21 23:59:00,
2013-01-21 19:04:00,11.8,-0.2,30.23,WNW,292,13.6,13.6,58,0.00,,,0.00,WUHU21623XXSP,2013-01-22 00:04:00,
2013-01-21 19:09:00,11.8,0.2,30.23,WNW,292,2.9,13.6,59,0.00,,,0.00,WUHU21623XXSP,2013-01-22 00:09:00,
2013-01-21 19:14:00,11.8,-0.2,30.23,West,270,4.0,4.5,58,0.00,,,0.00,WUHU21623XXSP,2013-01-22 00:14:00,
2013-01-21 19:19:00,11.7,-0.4,30.23,West,270,7.6,7.6,58,0.00,,,0.00,WUHU21623XXSP,2013-01-22 00:19:00,
2013-01-21 19:24:00,11.5,-0.5,30.23,NW,315,8.5,8.5,58,0.00,,,0.00,WUHU21623XXSP,2013-01-22 00:24:00,
2013-01-21 19:29:00,11.5,-0.2,30.23,WNW,292,6.5,8.5,59,0.00,,,0.00,WUHU21623XXSP,2013-01-22 00:29:00,
2013-01-21 19:34:00,11.3,-0.7,30.23,WNW,292,6.3,8.5,58,0.00,,,0.00,WUHU21623XXSP,2013-01-22 00:34:00,
2013-01-21 19:39:00,11.3,-0.5,30.23,WSW,247,6.3,8.1,58,0.00,,,0.00,WUHU21623XXSP,2013-01-22 00:39:00,
2013-01-21 19:44:00,11.3,-0.3,30.23,WSW,247,5.1,6.3,59,0.00,,,0.00,WUHU21623XXSP,2013-01-22 00:44:00,
2013-01-21 19:49:00,11.1,-0.5,30.23,West,270,5.8,6.3,59,0.00,,,0.00,WUHU21623XXSP,2013-01-22 00:49:00,
2013-01-21 19:54:00,11.1,-0.5,30.23,West,270,4.5,6.3,59,0.00,,,0.00,WUHU21623XXSP,2013-01-22 00:54:00,
2013-01-21 19:59:00,11.1,-0.9,30.23,WNW,292,8.9,8.9,58,0.00,,,0.00,WUHU21623XXSP,2013-01-22 00:59:00,
2013-01-21 20:04:00,11.1,-0.9,30.23,WNW,292,13.4,16.1,58,0.00,,,0.00,WUHU21623XXSP,2013-01-22 01:04:00,
2013-01-21 20:09:00,11.1,-0.9,30.24,West,270,6.3,16.1,58,0.00,,,0.00,WUHU21623XXSP,2013-01-22 01:09:00,
2013-01-21 20:14:00,11.1,-0.9,30.24,WNW,292,6.9,7.4,58,0.00,,,0.00,WUHU21623XXSP,2013-01-22 01:14:00,
2013-01-21 20:19:00,11.1,-0.9,30.24,West,270,5.8,9.6,58,0.00,,,0.00,WUHU21623XXSP,2013-01-22 01:19:00,
2013-01-21 20:24:00,10.9,-1.0,30.24,WNW,292,9.6,9.6,58,0.00,,,0.00,WUHU21623XXSP,2013-01-22 01:24:00,
2013-01-21 20:29:00,10.9,-1.0,30.24,West,270,3.8,9.6,58,0.00,,,0.00,WUHU21623XXSP,2013-01-22 01:29:00,
2013-01-21 20:34:00,10.8,-1.0,30.24,WNW,292,12.1,12.1,58,0.00,,,0.00,WUHU21623XXSP,2013-01-22 01:34:00,
2013-01-21 20:39:00,10.8,-1.2,30.24,West,270,4.3,12.1,58,0.00,,,0.00,WUHU21623XXSP,2013-01-22 01:39:00,
2013-01-21 20:44:00,10.8,-1.2,30.24,NW,315,11.0,11.0,58,0.00,,,0.00,WUHU21623XXSP,2013-01-22 01:44:00,
2013-01-21 20:49:00,10.8,-0.8,30.24,WNW,292,11.6,11.6,59,0.00,,,0.00,WUHU21623XXSP,2013-01-22 01:49:00,
2013-01-21 20:54:00,10.6,-1.0,30.24,West,270,4.0,11.6,59,0.00,,,0.00,WUHU21623XXSP,2013-01-22 01:54:00,
2013-01-21 20:59:00,10.8,-0.8,30.24,West,270,4.0,11.6,59,0.00,,,0.00,WUHU21623XXSP,2013-01-22 01:59:00,
2013-01-21 21:04:00,10.8,-0.8,30.24,West,270,5.4,7.2,59,0.00,,,0.00,WUHU21623XXSP,2013-01-22 02:04:00,
2013-01-21 21:09:00,10.8,-0.8,30.24,West,270,5.8,12.5,59,0.00,,,0.00,WUHU21623XXSP,2013-01-22 02:09:00,
2013-01-21 21:14:00,10.8,-0.8,30.24,West,270,6.0,12.5,59,0.00,,,0.00,WUHU21623XXSP,2013-01-22 02:14:00,
2013-01-21 21:19:00,10.8,-0.8,30.24,West,270,5.1,11.4,59,0.00,,,0.00,WUHU21623XXSP,2013-01-22 02:19:00,
2013-01-21 21:24:00,10.8,-0.8,30.24,West,270,7.4,7.4,59,0.00,,,0.00,WUHU21623XXSP,2013-01-22 02:24:00,
2013-01-21 21:29:00,10.6,-1.0,30.25,West,270,6.5,7.4,59,0.00,,,0.00,WUHU21623XXSP,2013-01-22 02:29:00,
2013-01-21 21:34:00,10.6,-1.0,30.25,West,270,6.5,7.4,59,0.00,,,0.00,WUHU21623XXSP,2013-01-22 02:34:00,
2013-01-21 21:39:00,10.6,-1.0,30.25,West,270,4.7,6.5,59,0.00,,,0.00,WUHU21623XXSP,2013-01-22 02:39:00,
2013-01-21 21:44:00,10.6,-1.0,30.25,West,270,7.2,7.2,59,0.00,,,0.00,WUHU21623XXSP,2013-01-22 02:44:00,
2013-01-21 21:49:00,10.6,-1.0,30.25,West,270,5.4,7.2,59,0.00,,,0.00,WUHU21623XXSP,2013-01-22 02:49:00,
2013-01-21 21:54:00,10.6,-0.8,30.25,West,270,5.4,6.5,59,0.00,,,0.00,WUHU21623XXSP,2013-01-22 02:54:00,
2013-01-21 21:59:00,10.6,-1.0,30.25,West,270,8.1,8.1,59,0.00,,,0.00,WUHU21623XXSP,2013-01-22 02:59:00,
2013-01-21 22:04:00,10.8,-1.0,30.25,West,270,8.3,8.3,59,0.00,,,0.00,WUHU21623XXSP,2013-01-22 03:04:00,
2013-01-21 22:09:00,10.6,-1.0,30.25,West,270,5.1,8.3,59,0.00,,,0.00,WUHU21623XXSP,2013-01-22 03:09:00,
2013-01-21 22:14:00,10.6,-1.0,30.26,WNW,292,7.4,7.4,59,0.00,,,0.00,WUHU21623XXSP,2013-01-22 03:14:00,
2013-01-21 22:19:00,10.6,-1.0,30.26,WNW,292,4.7,7.4,59,0.00,,,0.00,WUHU21623XXSP,2013-01-22 03:19:00,
2013-01-21 22:24:00,10.6,-1.0,30.26,WSW,247,8.3,8.3,59,0.00,,,0.00,WUHU21623XXSP,2013-01-22 03:24:00,
2013-01-21 22:29:00,10.6,-1.0,30.26,West,270,4.7,8.3,59,0.00,,,0.00,WUHU21623XXSP,2013-01-22 03:29:00,
2013-01-21 22:34:00,10.6,-1.0,30.26,West,270,6.5,6.9,59,0.00,,,0.00,WUHU21623XXSP,2013-01-22 03:34:00,
2013-01-21 22:39:00,10.2,-1.0,30.26,WNW,292,6.9,6.9,59,0.00,,,0.00,WUHU21623XXSP,2013-01-22 03:39:00,
2013-01-21 22:44:00,10.2,-1.3,30.26,NW,315,12.8,12.8,59,0.00,,,0.00,WUHU21623XXSP,2013-01-22 03:44:00,
2013-01-21 22:49:00,10.2,-1.3,30.26,NNW,337,14.5,14.5,59,0.00,,,0.00,WUHU21623XXSP,2013-01-22 03:49:00,
2013-01-21 22:54:00,10.2,-1.3,30.26,West,270,7.2,14.5,59,0.00,,,0.00,WUHU21623XXSP,2013-01-22 03:54:00,
2013-01-21 22:59:00,10.2,-1.3,30.26,West,270,9.8,11.0,59,0.00,,,0.00,WUHU21623XXSP,2013-01-22 03:59:00,
2013-01-21 23:04:00,10.2,-1.3,30.27,NW,315,9.2,11.0,59,0.00,,,0.00,WUHU21623XXSP,2013-01-22 04:04:00,
2013-01-21 23:09:00,10.2,-1.3,30.27,WNW,292,11.2,11.2,59,0.00,,,0.00,WUHU21623XXSP,2013-01-22 04:09:00,
2013-01-21 23:14:00,10.0,-1.1,30.27,West,270,6.0,11.9,60,0.00,,,0.00,WUHU21623XXSP,2013-01-22 04:14:00,
2013-01-21 23:19:00,10.0,-1.1,30.27,WNW,292,7.6,11.9,60,0.00,,,0.00,WUHU21623XXSP,2013-01-22 04:19:00,
2013-01-21 23:24:00,10.0,-1.1,30.27,NW,315,6.7,7.6,60,0.00,,,0.00,WUHU21623XXSP,2013-01-22 04:24:00,
2013-01-21 23:29:00,10.0,-1.1,30.27,WNW,292,12.8,12.8,60,0.00,,,0.00,WUHU21623XXSP,2013-01-22 04:29:00,
2013-01-21 23:34:00,9.7,-1.5,30.27,NW,315,9.4,12.8,60,0.00,,,0.00,WUHU21623XXSP,2013-01-22 04:34:00,
2013-01-21 23:39:00,9.7,-1.5,30.27,NW,315,9.4,9.4,60,0.00,,,0.00,WUHU21623XXSP,2013-01-22 04:39:00,
2013-01-21 23:44:00,9.7,-1.5,30.27,WNW,292,6.7,9.4,60,0.00,,,0.00,WUHU21623XXSP,2013-01-22 04:44:00,
2013-01-21 23:49:00,9.7,-1.5,30.27,NW,315,10.3,11.0,60,0.00,,,0.00,WUHU21623XXSP,2013-01-22 04:49:00,
2013-01-21 23:54:00,9.7,-1.5,30.27,NW,315,14.3,14.3,60,0.00,,,0.00,WUHU21623XXSP,2013-01-22 04:54:00,
2013-01-21 23:59:00,9.7,-1.5,30.28,WNW,292,7.6,14.3,60,0.00,,,0.00,WUHU21623XXSP,2013-01-22 04:59:00,